Bookmark and Share
Track history (hours):
 

Desoto

More information available from US FCC via Universal Licensing System and Coast Guard Vessel Documentation Center.

Last reported at 2014-Feb-28 14:34 UTC. Time now 2014-Apr-21 07:34 UTC.
Position N 27°35' W 082°46'.
Warning: this ship's position is 51 days out of date.

Length 18 m.

Type: Pilot. MMSI: 367343870.

NotesDate/timePositionNaut miles runAvg speedWind from/ knotsBaromVisibWave heightAir tempDewpointWater temp
2014-Feb-28 14:34N 27°35' W 082°46'0 0.0
2014-Feb-28 13:33N 27°35' W 082°46'0 0.0
2014-Feb-28 12:34N 27°35' W 082°46'0 0.0
2014-Feb-28 11:34N 27°35' W 082°46'0 0.0
2014-Feb-28 10:34N 27°35' W 082°46'0 0.0
2014-Feb-28 09:33N 27°35' W 082°46'0 0.0
2014-Feb-28 08:33N 27°35' W 082°46'0 0.0
2014-Feb-28 07:34N 27°35' W 082°46'0 0.0
2014-Feb-28 06:34N 27°35' W 082°46'0 0.0
2014-Feb-28 05:34N 27°35' W 082°46'0 0.0
2014-Feb-28 04:33N 27°35' W 082°46'0 0.0
2014-Feb-28 03:34N 27°35' W 082°46'0 0.0
2014-Feb-28 02:34N 27°35' W 082°46'0 0.0
2014-Feb-28 01:34N 27°35' W 082°46'0 0.0
2014-Feb-28 00:33N 27°35' W 082°46'0 0.0
2014-Feb-27 23:34N 27°35' W 082°46'0 0.0
2014-Feb-27 22:34N 27°35' W 082°46'0 0.0
2014-Feb-27 21:34N 27°35' W 082°46'3 1.4
2014-Feb-27 19:33N 27°36' W 082°48'3 2.8
2014-Feb-27 18:32N 27°35' W 082°46'0 0.0
2014-Feb-27 17:33N 27°35' W 082°46'0 0.0
2014-Feb-27 16:33N 27°35' W 082°46'0 0.0
2014-Feb-27 15:32N 27°35' W 082°46'0 0.0
2014-Feb-27 14:33N 27°35' W 082°46'0 0.0
2014-Feb-27 13:33N 27°35' W 082°46'0 0.0
2014-Feb-27 12:32N 27°35' W 082°46'0 0.0
2014-Feb-27 11:33N 27°35' W 082°46'0 0.0
2014-Feb-27 10:33N 27°35' W 082°46'0 0.0
2014-Feb-27 09:33N 27°35' W 082°46'0 0.0
2014-Feb-27 08:32N 27°35' W 082°46'0 0.0
2014-Feb-27 07:32N 27°35' W 082°46'0 0.0
2014-Feb-27 06:30N 27°35' W 082°46'0 0.0
2014-Feb-27 05:32N 27°35' W 082°46'0 0.0
2014-Feb-27 04:33N 27°35' W 082°46'0 0.0
2014-Feb-27 03:32N 27°35' W 082°46'0 0.0
2014-Feb-27 02:32N 27°35' W 082°46'0 0.0
2014-Feb-27 01:29N 27°35' W 082°46'0 0.0
2014-Feb-27 00:32N 27°35' W 082°46'0 0.0
2014-Feb-26 23:32N 27°35' W 082°46'0 0.0
2014-Feb-26 22:32N 27°35' W 082°46'0 0.0
2014-Feb-26 21:32N 27°35' W 082°46'0 0.0
2014-Feb-26 20:32N 27°35' W 082°46'0 0.0
2014-Feb-26 19:32N 27°35' W 082°46'0 0.0
2014-Feb-26 18:17N 27°35' W 082°46'0 0.0
2014-Feb-26 16:32N 27°35' W 082°46'0 0.0
2014-Feb-26 15:32N 27°35' W 082°46'0 0.0
2014-Feb-26 14:29N 27°35' W 082°46'0 0.0
2014-Feb-26 13:29N 27°35' W 082°46'0 0.0
2014-Feb-26 12:32N 27°35' W 082°46'0 0.0
2014-Feb-26 11:32N 27°35' W 082°46'0 0.0
2014-Feb-26 10:32N 27°35' W 082°46'0 0.0
2014-Feb-26 09:29N 27°35' W 082°46'0 0.0
2014-Feb-26 08:32N 27°35' W 082°46'0 0.0
2014-Feb-26 07:32N 27°35' W 082°46'0 0.0
2014-Feb-26 06:32N 27°35' W 082°46'0 0.0
2014-Feb-26 05:32N 27°35' W 082°46'0 0.0
2014-Feb-26 04:32N 27°35' W 082°46'0 0.0
2014-Feb-26 03:32N 27°35' W 082°46'0 0.0
2014-Feb-26 02:32N 27°35' W 082°46'0 0.0
2014-Feb-26 01:26N 27°35' W 082°46'0 0.0
2014-Feb-26 00:32N 27°35' W 082°46'0 0.0
2014-Feb-25 23:29N 27°35' W 082°46'0 0.0
2014-Feb-25 22:32N 27°35' W 082°46'0 0.0
2014-Feb-25 21:32N 27°35' W 082°46'0 0.0
2014-Feb-25 20:32N 27°35' W 082°46'0 0.0
2014-Feb-25 19:32N 27°35' W 082°46'  
2014-Feb-20 19:31N 27°35' W 082°46'0 0.0
2014-Feb-20 18:31N 27°35' W 082°46'2 2.4
2014-Feb-20 17:33N 27°37' W 082°48'2 1.2
2014-Feb-20 15:33N 27°35' W 082°46'0 0.0
2014-Feb-20 14:30N 27°35' W 082°46'0 0.0
2014-Feb-20 13:33N 27°35' W 082°46'0 0.0
2014-Feb-20 12:33N 27°35' W 082°46'0 0.0
2014-Feb-20 11:33N 27°35' W 082°46'1 1.1
2014-Feb-20 10:34N 27°36' W 082°45'5 4.5
2014-Feb-20 09:33N 27°36' W 082°51'4 4.5
2014-Feb-20 08:33N 27°35' W 082°46'0 0.0
2014-Feb-20 07:30N 27°35' W 082°46'0 0.0
2014-Feb-20 06:33N 27°35' W 082°46'0 0.0
2014-Feb-20 05:33N 27°35' W 082°46'0 0.0
2014-Feb-20 04:33N 27°35' W 082°46'0 0.0
2014-Feb-20 03:33N 27°35' W 082°46'0 0.0
2014-Feb-20 02:33N 27°35' W 082°46'0 0.0
2014-Feb-20 01:33N 27°35' W 082°46'0 0.0
2014-Feb-20 00:33N 27°35' W 082°46'0 0.0
2014-Feb-19 22:33N 27°35' W 082°46'0 0.0
2014-Feb-19 21:33N 27°35' W 082°46'0 0.0
2014-Feb-19 20:33N 27°35' W 082°46'  

Dump ship's entire track history

sailing weather and tide predictions

Desoto — WDE3761 — position and weather